Time;durP1;ratioP1;P1;durP2;ratioP2;P2;SDS_P1;SDS_P2;PMS_P1;PMS_P2;Temp;Humidity;BMP_temperature;BMP_pressure;BME280_temperature;BME280_humidity;BME280_pressure;Samples;Min_cycle;Max_cycle;Signal;HPM_P1;HPM_P2
2021/11/18 00:03:17;;;;;;;56.20;51.13;;;;;;;7.66;100.00;102950.52;2002682;71;32861;-70
2021/11/18 00:09:01;;;;;;;56.20;51.57;;;;;;;7.56;100.00;102950.12;2017094;71;32928;-74
2021/11/18 00:14:45;;;;;;;55.73;50.83;;;;;;;7.44;100.00;102949.08;1994969;71;32833;-74
2021/11/18 00:20:31;;;;;;;58.93;53.87;;;;;;;7.18;100.00;102959.06;1997089;71;32735;-70
2021/11/18 00:26:16;;;;;;;57.17;52.10;;;;;;;7.12;100.00;102955.75;2004816;71;32805;-70
2021/11/18 00:32:01;;;;;;;55.53;51.13;;;;;;;6.99;100.00;102960.41;1997561;71;32741;-74
2021/11/18 00:37:45;;;;;;;57.33;52.30;;;;;;;6.83;100.00;102968.03;2014975;71;33399;-69
2021/11/18 00:43:31;;;;;;;55.50;51.10;;;;;;;6.70;100.00;102967.14;2000790;71;32792;-70
2021/11/18 00:49:15;;;;;;;56.67;52.37;;;;;;;6.69;100.00;102958.53;2011863;71;32754;-69
2021/11/18 00:54:59;;;;;;;56.50;52.00;;;;;;;6.76;100.00;102969.09;1995418;71;32765;-70
2021/11/18 01:00:46;;;;;;;56.47;51.80;;;;;;;6.68;100.00;102947.16;2016798;71;32881;-70
2021/11/18 01:06:30;;;;;;;55.47;50.77;;;;;;;6.45;100.00;102948.05;1991630;71;32812;-74
2021/11/18 01:12:14;;;;;;;59.33;53.70;;;;;;;6.61;100.00;102962.34;2010276;71;33229;-74
2021/11/18 01:17:59;;;;;;;59.80;54.20;;;;;;;6.77;100.00;102950.05;2018781;71;32796;-74
2021/11/18 01:23:45;;;;;;;58.17;53.40;;;;;;;6.70;100.00;102951.42;2016750;71;32872;-70
2021/11/18 01:29:30;;;;;;;55.87;51.03;;;;;;;6.72;100.00;102958.95;2011829;71;32798;-73
2021/11/18 01:35:15;;;;;;;59.47;54.53;;;;;;;6.59;100.00;102965.81;2004050;71;32874;-72
2021/11/18 01:41:02;;;;;;;55.37;50.57;;;;;;;6.52;100.00;102983.42;2004147;71;32818;-74
2021/11/18 01:46:47;;;;;;;56.07;51.40;;;;;;;6.47;100.00;102984.05;2009748;71;32792;-74
2021/11/18 01:52:33;;;;;;;54.37;49.33;;;;;;;6.34;100.00;102979.31;2007959;71;32927;-74
2021/11/18 01:58:18;;;;;;;57.23;52.67;;;;;;;6.31;100.00;102998.20;1998750;70;32810;-74
2021/11/18 02:04:11;;;;;;;56.47;52.07;;;;;;;6.23;100.00;103006.13;1999143;71;32817;-70
2021/11/18 02:09:56;;;;;;;54.37;49.57;;;;;;;6.30;100.00;103007.01;2004537;71;32757;-74
2021/11/18 02:15:44;;;;;;;54.03;49.27;;;;;;;6.32;100.00;103002.15;2004130;71;32813;-75
2021/11/18 02:21:30;;;;;;;54.50;49.80;;;;;;;6.59;100.00;103006.41;1995169;71;32892;-70
2021/11/18 02:27:16;;;;;;;54.13;49.63;;;;;;;6.61;100.00;102999.61;2011864;70;33311;-70
2021/11/18 02:33:00;;;;;;;54.17;50.00;;;;;;;6.65;100.00;103006.42;2006448;71;32747;-70
2021/11/18 02:38:46;;;;;;;53.17;48.97;;;;;;;6.58;100.00;103000.56;2015170;71;32810;-70
2021/11/18 02:44:32;;;;;;;54.13;49.73;;;;;;;6.55;100.00;103010.09;2000943;71;32737;-74
2021/11/18 02:50:19;;;;;;;54.43;50.30;;;;;;;6.97;100.00;103008.98;2005709;71;33386;-70
2021/11/18 02:56:05;;;;;;;54.67;50.53;;;;;;;6.73;100.00;103008.14;2011375;71;33300;-74
2021/11/18 03:01:50;;;;;;;52.80;48.00;;;;;;;7.38;100.00;102995.00;2011299;71;33362;-70
2021/11/18 03:07:35;;;;;;;52.83;48.10;;;;;;;7.94;100.00;102997.31;1991578;71;32750;-74
2021/11/18 03:13:22;;;;;;;53.27;48.67;;;;;;;7.84;100.00;103002.42;2015210;71;32819;-69
2021/11/18 03:16:34;;;;;;;52.77;48.30;;;;;;;7.64;100.00;103015.76;1970404;72;26208;-69
2021/11/18 03:22:19;;;;;;;54.50;50.03;;;;;;;7.46;100.00;102987.02;2018587;71;32933;-74
2021/11/18 03:28:04;;;;;;;55.97;51.17;;;;;;;7.44;100.00;102985.87;2014963;71;32830;-70
2021/11/18 03:33:52;;;;;;;54.03;49.40;;;;;;;7.28;100.00;102964.16;2010219;71;33347;-70
2021/11/18 03:39:39;;;;;;;53.10;48.83;;;;;;;7.22;100.00;102966.39;1995406;71;33325;-70
2021/11/18 03:45:27;;;;;;;54.20;49.80;;;;;;;7.13;100.00;102967.12;1991644;71;32772;-74
2021/11/18 03:51:13;;;;;;;53.07;48.63;;;;;;;7.25;100.00;102959.05;2006021;71;32925;-69
2021/11/18 03:56:58;;;;;;;56.03;51.37;;;;;;;7.34;100.00;102964.70;1999097;71;32831;-68
2021/11/18 04:02:43;;;;;;;53.17;48.77;;;;;;;7.55;100.00;102952.03;2004535;71;32763;-70
2021/11/18 04:08:27;;;;;;;52.13;48.03;;;;;;;7.77;100.00;102940.20;1997109;71;32820;-71
2021/11/18 04:14:13;;;;;;;54.10;49.93;;;;;;;7.64;100.00;102954.05;2004709;71;33241;-69
2021/11/18 04:19:57;;;;;;;53.47;49.03;;;;;;;7.18;100.00;102954.92;2016867;71;32827;-70
2021/11/18 04:25:41;;;;;;;53.70;49.10;;;;;;;7.67;100.00;102948.94;1998623;71;32907;-70
2021/11/18 04:31:30;;;;;;;54.67;50.10;;;;;;;7.36;100.00;102951.49;2002640;71;32856;-70
2021/11/18 04:37:15;;;;;;;52.33;48.07;;;;;;;7.13;100.00;102951.94;2016798;71;32889;-70
2021/11/18 04:42:59;;;;;;;52.47;48.27;;;;;;;7.30;100.00;102958.75;2002553;71;32819;-74
2021/11/18 04:48:44;;;;;;;52.33;47.87;;;;;;;7.31;100.00;102953.55;2013071;71;32850;-74
2021/11/18 04:54:29;;;;;;;53.07;48.97;;;;;;;7.36;100.00;102978.32;2016949;71;32837;-72
2021/11/18 05:00:18;;;;;;;51.73;47.60;;;;;;;7.24;100.00;102983.61;2000733;71;32847;-74
2021/11/18 05:06:03;;;;;;;50.97;47.07;;;;;;;7.31;100.00;102974.80;2010153;71;32863;-69
2021/11/18 05:11:48;;;;;;;52.03;47.47;;;;;;;7.60;100.00;102965.22;2013827;71;33363;-75
2021/11/18 05:17:32;;;;;;;54.00;49.30;;;;;;;7.73;100.00;102969.36;2002424;71;33056;-75
2021/11/18 05:23:18;;;;;;;52.53;48.03;;;;;;;7.68;100.00;102978.30;2015055;70;32838;-75
2021/11/18 05:29:02;;;;;;;54.57;49.93;;;;;;;7.85;100.00;102979.23;1992134;71;33412;-75
2021/11/18 05:34:47;;;;;;;55.23;50.03;;;;;;;7.98;100.00;102972.29;2013350;71;32831;-74
2021/11/18 05:40:33;;;;;;;54.10;49.70;;;;;;;8.02;100.00;102986.02;2004525;71;32855;-70
2021/11/18 05:46:20;;;;;;;57.00;51.70;;;;;;;7.99;100.00;102976.24;2001038;70;33465;-75
2021/11/18 05:52:06;;;;;;;52.87;48.27;;;;;;;8.11;100.00;102985.58;2000940;71;32755;-70
2021/11/18 05:57:51;;;;;;;55.90;50.93;;;;;;;8.18;100.00;102985.01;2015291;71;33451;-69
2021/11/18 06:03:38;;;;;;;56.07;50.63;;;;;;;8.13;100.00;102977.89;2016877;71;32815;-74
2021/11/18 06:09:23;;;;;;;55.87;51.27;;;;;;;8.17;100.00;102970.84;2007687;71;32957;-71
2021/11/18 06:15:11;;;;;;;53.83;49.17;;;;;;;8.26;100.00;102969.25;1990449;71;32833;-69
2021/11/18 06:20:56;;;;;;;54.23;49.50;;;;;;;8.28;100.00;102960.17;1991726;71;32740;-70
2021/11/18 06:26:38;;;;;;;54.23;49.37;;;;;;;8.36;100.00;102966.88;2003954;71;32933;-71
2021/11/18 06:32:25;;;;;;;54.40;49.47;;;;;;;8.26;100.00;102965.09;2009750;71;33384;-71
2021/11/18 06:38:09;;;;;;;52.97;48.13;;;;;;;8.31;100.00;102984.68;2010038;71;32848;-74
2021/11/18 06:43:53;;;;;;;54.13;49.47;;;;;;;8.27;100.00;102993.93;2018550;71;32824;-73
2021/11/18 06:49:38;;;;;;;57.87;52.23;;;;;;;8.17;100.00;102994.38;2015027;71;33030;-76
2021/11/18 06:55:24;;;;;;;53.53;48.90;;;;;;;8.06;100.00;103016.34;2015018;71;32832;-75
2021/11/18 07:01:08;;;;;;;55.53;50.63;;;;;;;8.00;100.00;103017.22;2016708;71;32852;-76
2021/11/18 07:06:52;;;;;;;54.17;49.73;;;;;;;7.85;100.00;103033.19;2015274;70;33341;-75
2021/11/18 07:12:36;;;;;;;53.43;49.07;;;;;;;7.73;100.00;103034.38;1994887;70;32837;-70
2021/11/18 07:18:23;;;;;;;52.23;47.87;;;;;;;7.93;100.00;103053.19;2013251;71;32946;-71
2021/11/18 07:24:10;;;;;;;53.17;48.63;;;;;;;7.64;100.00;103048.09;1961997;72;32992;-69
2021/11/18 07:29:58;;;;;;;52.83;48.00;;;;;;;7.71;100.00;103062.77;2016994;71;33298;-74
2021/11/18 07:35:42;;;;;;;51.57;47.03;;;;;;;7.80;100.00;103067.03;2006486;71;33383;-71
2021/11/18 07:41:28;;;;;;;52.47;47.97;;;;;;;7.84;100.00;103077.99;1993639;71;32866;-74
2021/11/18 07:47:13;;;;;;;54.90;50.50;;;;;;;7.63;100.00;103085.11;2004494;71;32782;-74
2021/11/18 07:52:58;;;;;;;56.97;52.40;;;;;;;7.93;100.00;103095.23;2015021;71;33275;-75
2021/11/18 07:58:43;;;;;;;60.43;55.43;;;;;;;7.88;100.00;103094.48;2016719;71;32893;-73
2021/11/18 08:04:27;;;;;;;52.27;48.03;;;;;;;7.43;100.00;103097.53;2010343;71;33268;-73
2021/11/18 08:10:14;;;;;;;53.63;49.27;;;;;;;7.61;100.00;103096.93;2009770;71;32964;-78
2021/11/18 08:15:58;;;;;;;53.50;49.07;;;;;;;7.77;100.00;103087.69;2000957;71;32860;-69
2021/11/18 08:21:44;;;;;;;54.33;49.80;;;;;;;7.95;100.00;103087.58;2007996;71;32892;-75
2021/11/18 08:27:32;;;;;;;52.87;48.20;;;;;;;7.97;100.00;103090.45;2009640;71;32917;-75
2021/11/18 08:33:16;;;;;;;53.30;48.37;;;;;;;8.25;100.00;103106.84;2007755;71;32818;-76
2021/11/18 08:39:01;;;;;;;55.67;50.70;;;;;;;8.38;100.00;103091.63;2004129;71;33492;-75
2021/11/18 08:44:46;;;;;;;53.40;48.93;;;;;;;8.68;100.00;103080.89;2013795;71;33342;-75
2021/11/18 08:50:30;;;;;;;53.43;48.73;;;;;;;8.84;100.00;103072.61;2002293;71;33350;-74
2021/11/18 08:56:15;;;;;;;52.10;47.50;;;;;;;9.19;100.00;103082.79;2011166;71;32840;-74
2021/11/18 09:01:58;;;;;;;54.93;50.13;;;;;;;9.10;100.00;103095.52;1934441;73;32822;-77
2021/11/18 09:07:44;;;;;;;56.40;51.53;;;;;;;9.19;100.00;103089.19;2001057;71;32831;-78
2021/11/18 09:13:30;;;;;;;55.50;50.90;;;;;;;9.29;100.00;103085.38;1997162;71;32840;-75
2021/11/18 09:19:17;;;;;;;52.97;48.60;;;;;;;9.50;100.00;103068.91;2050818;69;33301;-78
2021/11/18 09:25:05;;;;;;;51.57;47.53;;;;;;;10.06;100.00;103070.28;2016862;71;32853;-75
2021/11/18 09:31:04;;;;;;;51.10;47.00;;;;;;;10.24;100.00;103075.06;1923188;73;33475;-72
2021/11/18 09:36:49;;;;;;;50.23;46.10;;;;;;;10.55;100.00;103079.12;2011434;71;33411;-74
2021/11/18 09:42:46;;;;;;;50.00;46.07;;;;;;;10.83;100.00;103064.13;2101650;68;32661;-78
2021/11/18 09:48:41;;;;;;;48.73;45.13;;;;;;;10.89;100.00;103072.94;2015165;71;32855;-73
2021/11/18 09:51:29;;;;;;;50.67;46.93;;;;;;;11.00;100.00;103082.94;1978594;72;26273;-73
2021/11/18 09:57:38;;;;;;;51.90;47.43;;;;;;;11.05;100.00;103088.12;2011645;71;32867;-74
2021/11/18 10:03:32;;;;;;;50.50;46.23;;;;;;;11.23;100.00;103091.42;1991781;71;33299;-74
2021/11/18 10:09:39;;;;;;;50.33;46.30;;;;;;;11.41;100.00;103085.81;1964661;72;32836;-78
2021/11/18 10:15:25;;;;;;;52.60;48.43;;;;;;;11.52;100.00;103084.98;2005735;71;32903;-74
2021/11/18 10:21:17;;;;;;;49.07;45.20;;;;;;;11.68;100.00;103089.88;2007761;71;33398;-74
2021/11/18 10:27:09;;;;;;;50.50;46.47;;;;;;;11.74;100.00;103087.58;2009653;71;32942;-74
2021/11/18 10:33:01;;;;;;;50.67;46.83;;;;;;;11.92;100.00;103083.86;2011426;71;32852;-74
2021/11/18 10:38:59;;;;;;;49.90;46.00;;;;;;;11.94;100.00;103092.80;2013565;71;33464;-80
2021/11/18 10:44:49;;;;;;;49.27;45.33;;;;;;;12.20;100.00;103088.72;2005882;70;32883;-79
2021/11/18 10:50:38;;;;;;;50.13;46.43;;;;;;;12.22;100.00;103092.13;2004362;71;33353;-71
2021/11/18 10:56:35;;;;;;;49.17;45.47;;;;;;;12.35;100.00;103090.48;2004109;71;32835;-78
2021/11/18 11:02:30;;;;;;;50.83;46.87;;;;;;;12.53;100.00;103091.77;2002683;71;32985;-79
2021/11/18 11:08:30;;;;;;;50.53;46.97;;;;;;;12.57;100.00;103097.69;2009507;71;33336;-75
2021/11/18 11:14:27;;;;;;;50.80;47.17;;;;;;;12.62;100.00;103086.66;2004450;71;32764;-73
2021/11/18 11:17:09;;;;;;;50.97;47.17;;;;;;;12.56;100.00;103085.69;1967179;72;26216;-73
2021/11/18 11:19:43;;;;;;;50.87;46.93;;;;;;;12.46;100.00;103079.02;1966358;72;26274;-72
2021/11/18 11:22:16;;;;;;;52.50;48.33;;;;;;;12.54;100.00;103081.43;1961051;72;26224;-76
2021/11/18 11:28:57;;;;;;;54.40;50.53;;;;;;;12.65;100.00;103064.70;1998615;71;32818;-75
2021/11/18 11:35:08;;;;;;;53.40;49.47;;;;;;;12.56;100.00;103068.11;1995408;71;32821;-78
2021/11/18 11:41:26;;;;;;;50.53;46.63;;;;;;;12.79;100.00;103082.02;2018589;71;32915;-74
2021/11/18 11:47:18;;;;;;;50.73;46.90;;;;;;;13.05;100.00;103090.39;1997334;71;33391;-78
2021/11/18 11:53:09;;;;;;;51.60;47.70;;;;;;;13.12;100.00;103079.41;2013344;71;32988;-78
2021/11/18 11:59:16;;;;;;;52.03;47.97;;;;;;;13.14;100.00;103073.02;1995446;71;33386;-71
2021/11/18 12:01:50;;;;;;;51.43;47.60;;;;;;;13.16;100.00;103078.36;1962486;72;26684;-77
2021/11/18 12:04:24;;;;;;;51.07;47.17;;;;;;;13.18;100.00;103084.52;1965508;72;26289;-72
2021/11/18 12:06:58;;;;;;;51.33;47.33;;;;;;;13.25;100.00;103081.60;1972200;72;26217;-79
2021/11/18 12:09:33;;;;;;;53.50;49.63;;;;;;;13.28;100.00;103079.16;1985004;72;26663;-77
2021/11/18 12:15:22;;;;;;;52.93;48.63;;;;;;;13.36;100.00;103065.34;2018563;71;32899;-74
2021/11/18 12:21:08;;;;;;;50.17;46.27;;;;;;;13.58;100.00;103064.37;2013352;71;33384;-74
2021/11/18 12:27:27;;;;;;;52.03;48.23;;;;;;;13.85;100.00;103065.98;2016669;71;32939;-74
2021/11/18 12:33:56;;;;;;;52.60;48.97;;;;;;;13.86;100.00;103063.45;2013379;71;32820;-73
2021/11/18 12:36:48;;;;;;;50.67;47.17;;;;;;;13.73;100.00;103080.58;1980095;72;26271;-75
2021/11/18 12:43:04;;;;;;;53.20;49.40;;;;;;;13.68;100.00;103051.16;2016934;71;33331;-72
2021/11/18 12:49:17;;;;;;;53.97;50.17;;;;;;;13.58;100.00;103044.83;2017013;71;33392;-72
2021/11/18 12:52:13;;;;;;;53.90;50.03;;;;;;;13.57;100.00;103050.66;1985168;72;26745;-76
2021/11/18 12:58:37;;;;;;;52.03;48.20;;;;;;;13.68;100.00;103038.58;2015288;71;32942;-72
2021/11/18 13:01:43;;;;;;;52.13;48.40;;;;;;;13.76;100.00;103045.14;1966245;72;26193;-73
2021/11/18 13:07:49;;;;;;;51.43;47.77;;;;;;;13.85;100.00;103039.98;2018492;71;32809;-79
2021/11/18 13:13:48;;;;;;;53.37;49.60;;;;;;;13.88;100.00;103046.45;2013433;71;32939;-75
2021/11/18 13:20:28;;;;;;;54.50;50.70;;;;;;;13.85;100.00;103038.04;2005817;71;32929;-74
2021/11/18 13:23:01;;;;;;;52.97;49.17;;;;;;;13.85;100.00;103049.21;1938583;72;26294;-74
2021/11/18 13:28:55;;;;;;;54.07;50.17;;;;;;;13.93;100.00;103041.80;2000968;71;32762;-72
2021/11/18 13:34:48;;;;;;;52.27;48.63;;;;;;;13.96;100.00;103041.28;2004221;71;33397;-76
2021/11/18 13:40:35;;;;;;;53.13;49.27;;;;;;;13.99;100.00;103025.97;2004065;71;33340;-76
2021/11/18 13:46:28;;;;;;;54.20;50.20;;;;;;;13.98;100.00;103025.12;2017039;71;32836;-74
2021/11/18 13:52:19;;;;;;;52.50;48.80;;;;;;;14.07;100.00;103017.16;2002386;71;32970;-74
2021/11/18 13:58:14;;;;;;;51.13;47.47;;;;;;;14.18;100.00;103019.53;1997117;71;32818;-77
2021/11/18 14:04:02;;;;;;;51.70;48.07;;;;;;;14.28;100.00;103023.89;2016888;71;32871;-78
2021/11/18 14:09:50;;;;;;;49.47;46.23;;;;;;;14.31;100.00;103042.39;2009972;71;32869;-77
2021/11/18 14:15:56;;;;;;;49.83;46.80;;;;;;;14.26;100.00;103038.11;2006332;71;32818;-72
2021/11/18 14:21:45;;;;;;;45.67;42.97;;;;;;;14.27;100.00;103025.84;2016710;71;32936;-76
2021/11/18 14:24:30;;;;;;;48.47;45.57;;;;;;;14.23;100.00;103027.45;1980007;72;26200;-75
2021/11/18 14:30:17;;;;;;;49.60;46.33;;;;;;;14.29;100.00;103006.02;1995591;71;32765;-76
2021/11/18 14:36:17;;;;;;;50.97;47.57;;;;;;;14.34;100.00;103001.88;1999120;71;32863;-74
2021/11/18 14:42:06;;;;;;;49.23;46.17;;;;;;;14.37;100.00;103005.61;2001013;71;32870;-75
2021/11/18 14:48:31;;;;;;;46.43;43.53;;;;;;;14.37;100.00;102993.02;1929106;73;32988;-79
2021/11/18 14:54:24;;;;;;;50.03;46.83;;;;;;;14.41;100.00;103002.04;2009936;70;32691;-79
2021/11/18 15:00:12;;;;;;;48.07;45.03;;;;;;;14.36;100.00;103001.96;2011762;71;33332;-74
2021/11/18 15:05:53;;;;;;;47.83;44.83;;;;;;;14.35;100.00;103007.25;2002500;71;33356;-75
2021/11/18 15:11:41;;;;;;;48.07;45.17;;;;;;;14.30;100.00;103008.53;2004658;71;32833;-74
2021/11/18 15:20:37;;;;;;;52.13;48.93;;;;;;;14.26;100.00;103006.52;2003994;71;32906;-75
2021/11/18 15:26:25;;;;;;;50.77;47.57;;;;;;;14.19;100.00;103015.64;2016998;71;32850;-75
2021/11/18 15:35:21;;;;;;;50.87;47.87;;;;;;;14.09;100.00;103013.53;2004490;71;32889;-75
2021/11/18 15:41:07;;;;;;;50.93;47.63;;;;;;;14.05;100.00;103016.55;2016741;71;33538;-74
2021/11/18 15:46:59;;;;;;;49.97;46.87;;;;;;;14.06;100.00;103028.03;2002235;71;33404;-78
2021/11/18 15:52:44;;;;;;;51.23;47.77;;;;;;;13.96;100.00;103023.66;2006403;71;33154;-77
2021/11/18 15:58:30;;;;;;;53.97;50.17;;;;;;;13.97;100.00;103012.80;2015017;71;33070;-73
2021/11/18 16:04:21;;;;;;;53.67;50.40;;;;;;;13.86;100.00;103017.36;2016554;71;32863;-75
2021/11/18 16:10:11;;;;;;;53.07;49.93;;;;;;;13.86;100.00;103017.36;2002545;71;33008;-79
2021/11/18 16:15:58;;;;;;;51.03;47.83;;;;;;;13.84;100.00;103036.88;2008352;71;32893;-75
2021/11/18 16:21:44;;;;;;;52.50;49.10;;;;;;;13.79;100.00;103042.38;2009571;71;32815;-76
2021/11/18 16:27:31;;;;;;;51.70;48.40;;;;;;;13.82;100.00;103035.73;2006042;71;32808;-72
2021/11/18 16:33:17;;;;;;;52.97;49.77;;;;;;;13.83;100.00;103037.43;2005848;71;33407;-76
2021/11/18 16:39:03;;;;;;;52.80;49.40;;;;;;;13.82;100.00;103031.54;2009463;71;32817;-74
2021/11/18 16:44:50;;;;;;;53.73;50.33;;;;;;;13.85;100.00;103035.24;2007842;71;32827;-78
2021/11/18 16:50:39;;;;;;;51.73;48.33;;;;;;;13.82;100.00;103048.30;2006536;71;33281;-75
2021/11/18 16:56:27;;;;;;;52.07;48.77;;;;;;;13.82;100.00;103049.70;2000900;71;32843;-75
2021/11/18 17:02:15;;;;;;;51.97;48.57;;;;;;;13.80;100.00;103048.27;2003714;71;32776;-76
2021/11/18 17:07:59;;;;;;;50.80;47.40;;;;;;;13.82;100.00;103043.30;2010888;71;33457;-72
2021/11/18 17:13:44;;;;;;;53.67;50.10;;;;;;;13.83;100.00;103049.16;2009725;71;32905;-77
2021/11/18 17:19:30;;;;;;;55.23;51.63;;;;;;;13.81;100.00;103040.20;1991619;71;32784;-75
2021/11/18 17:25:18;;;;;;;51.10;47.60;;;;;;;13.71;100.00;103038.61;2015203;71;33418;-72
2021/11/18 17:31:05;;;;;;;55.10;51.60;;;;;;;13.58;100.00;103019.70;2018567;71;33402;-71
2021/11/18 17:36:50;;;;;;;52.90;49.40;;;;;;;13.59;100.00;103049.32;2013343;71;32803;-71
2021/11/18 17:42:36;;;;;;;52.70;49.00;;;;;;;13.59;100.00;103057.70;1991713;71;32771;-75
2021/11/18 17:48:23;;;;;;;55.87;52.27;;;;;;;13.51;100.00;103062.30;1941369;74;33656;-71
2021/11/18 17:54:10;;;;;;;54.00;50.30;;;;;;;13.35;100.00;103059.48;2015066;71;32970;-74
2021/11/18 17:59:58;;;;;;;55.67;51.87;;;;;;;13.26;100.00;103071.59;2008474;71;32827;-76
2021/11/18 18:05:44;;;;;;;56.87;52.87;;;;;;;13.37;100.00;103081.85;2006487;71;32941;-75
2021/11/18 18:11:30;;;;;;;56.63;52.83;;;;;;;13.26;100.00;103095.32;2013306;71;32835;-75
2021/11/18 18:17:19;;;;;;;55.03;51.27;;;;;;;13.21;100.00;103097.46;2004567;71;32738;-74
2021/11/18 18:23:07;;;;;;;58.40;54.30;;;;;;;13.25;100.00;103108.12;2008025;71;32813;-75
2021/11/18 18:28:53;;;;;;;60.10;56.10;;;;;;;13.31;100.00;103114.09;2000532;71;33017;-72
2021/11/18 18:34:39;;;;;;;58.27;53.97;;;;;;;13.31;100.00;103118.27;2002497;71;32931;-75
2021/11/18 18:40:26;;;;;;;58.57;54.57;;;;;;;13.31;100.00;103115.48;2011667;71;32799;-72
2021/11/18 18:46:13;;;;;;;57.20;53.30;;;;;;;13.31;100.00;103122.45;2008249;71;32745;-76
2021/11/18 18:52:02;;;;;;;57.20;53.30;;;;;;;13.32;100.00;103118.58;1995084;71;33312;-70
2021/11/18 18:57:46;;;;;;;58.70;54.60;;;;;;;13.22;100.00;103123.43;2007820;71;32887;-72
2021/11/18 19:03:33;;;;;;;54.40;50.50;;;;;;;13.18;100.00;103136.16;1998522;71;32949;-74
2021/11/18 19:09:19;;;;;;;58.20;54.07;;;;;;;13.08;100.00;103138.17;1991739;71;33422;-76
2021/11/18 19:15:08;;;;;;;52.47;48.67;;;;;;;12.96;100.00;103137.90;2007796;71;32831;-74
2021/11/18 19:20:55;;;;;;;54.50;50.77;;;;;;;12.86;100.00;103131.54;2006531;71;32842;-74
2021/11/18 19:26:43;;;;;;;54.87;50.97;;;;;;;12.89;100.00;103118.48;2015052;71;32817;-73
2021/11/18 19:32:33;;;;;;;55.27;51.37;;;;;;;12.94;100.00;103128.91;2009822;71;33471;-76
2021/11/18 19:38:21;;;;;;;55.00;51.10;;;;;;;12.86;100.00;103137.12;2006534;71;33305;-76
2021/11/18 19:44:07;;;;;;;56.57;52.93;;;;;;;12.84;100.00;103149.05;2007675;70;32800;-71
2021/11/18 19:49:55;;;;;;;64.47;60.27;;;;;;;12.83;100.00;103147.38;2009899;71;32955;-72
2021/11/18 19:55:44;;;;;;;59.43;55.53;;;;;;;12.76;100.00;103143.85;2003801;71;32752;-73
2021/11/18 20:01:32;;;;;;;65.87;61.23;;;;;;;12.73;100.00;103153.56;2014951;71;33337;-73
2021/11/18 20:07:20;;;;;;;60.97;56.97;;;;;;;12.72;100.00;103153.80;2009411;71;32869;-74
2021/11/18 20:13:04;;;;;;;56.67;52.67;;;;;;;12.55;100.00;103155.63;2011505;71;32924;-73
2021/11/18 20:18:49;;;;;;;61.57;57.53;;;;;;;12.65;100.00;103162.31;2013479;71;32878;-72
2021/11/18 20:24:36;;;;;;;63.30;59.10;;;;;;;12.31;100.00;103150.05;1999005;71;33258;-73
2021/11/18 20:30:24;;;;;;;61.03;57.03;;;;;;;12.32;100.00;103139.77;2008358;71;32724;-72
2021/11/18 20:36:13;;;;;;;64.70;60.60;;;;;;;12.20;100.00;103144.45;2009623;71;32834;-74
2021/11/18 20:41:59;;;;;;;58.07;54.07;;;;;;;12.33;100.00;103151.19;2009416;71;33421;-72
2021/11/18 20:47:44;;;;;;;62.23;58.03;;;;;;;12.36;100.00;103161.02;2000549;70;32856;-74
2021/11/18 20:53:31;;;;;;;60.00;55.93;;;;;;;12.36;100.00;103176.36;2008290;71;33294;-71
2021/11/18 20:59:17;;;;;;;61.10;57.00;;;;;;;12.21;100.00;103183.23;2006371;71;33336;-72
2021/11/18 21:05:04;;;;;;;59.33;55.27;;;;;;;11.90;100.00;103182.65;2008141;71;32823;-73
2021/11/18 21:10:50;;;;;;;55.30;51.50;;;;;;;12.13;100.00;103195.27;2011502;71;33372;-74
2021/11/18 21:16:38;;;;;;;55.07;51.17;;;;;;;11.85;100.00;103204.28;2015085;71;32869;-73
2021/11/18 21:22:25;;;;;;;54.50;50.80;;;;;;;12.18;100.00;103192.62;2000303;70;33270;-73
2021/11/18 21:28:10;;;;;;;56.13;52.33;;;;;;;12.06;100.00;103214.03;2006760;71;33427;-73
2021/11/18 21:33:59;;;;;;;55.37;51.77;;;;;;;11.79;100.00;103214.95;1991855;71;32746;-72
2021/11/18 21:39:49;;;;;;;59.03;55.13;;;;;;;11.79;100.00;103215.81;1997091;71;32861;-74
2021/11/18 21:45:37;;;;;;;57.13;53.33;;;;;;;11.69;100.00;103217.41;2014969;71;33443;-75
2021/11/18 21:51:27;;;;;;;56.03;52.30;;;;;;;11.90;100.00;103214.68;2009889;71;33427;-71
2021/11/18 21:57:16;;;;;;;53.33;49.23;;;;;;;11.98;100.00;103222.73;2009595;71;32911;-72
2021/11/18 22:03:04;;;;;;;52.70;48.90;;;;;;;12.14;100.00;103222.91;1999041;71;32818;-71
2021/11/18 22:08:50;;;;;;;55.10;51.20;;;;;;;12.17;100.00;103221.56;2000978;71;32758;-71
2021/11/18 22:14:34;;;;;;;51.97;48.30;;;;;;;12.24;100.00;103220.36;1995382;70;32887;-72
2021/11/18 22:20:22;;;;;;;55.83;51.70;;;;;;;12.13;100.00;103216.16;2015079;71;32825;-72
2021/11/18 22:26:10;;;;;;;53.83;50.13;;;;;;;11.76;100.00;103218.22;2009884;71;32845;-72
2021/11/18 22:31:56;;;;;;;53.97;50.03;;;;;;;11.54;100.00;103222.02;2000919;71;33261;-73
2021/11/18 22:37:42;;;;;;;53.57;49.77;;;;;;;11.30;100.00;103226.58;2011914;71;32841;-71
2021/11/18 22:43:29;;;;;;;51.80;48.07;;;;;;;11.20;100.00;103230.47;2009843;71;32892;-72
2021/11/18 22:49:15;;;;;;;52.90;48.93;;;;;;;11.37;100.00;103228.76;2000951;71;32857;-71
2021/11/18 22:55:00;;;;;;;53.33;49.37;;;;;;;11.15;100.00;103224.73;2016840;71;32812;-73
2021/11/18 23:00:49;;;;;;;53.87;50.07;;;;;;;10.91;100.00;103237.60;1995488;71;32848;-72
2021/11/18 23:06:38;;;;;;;55.63;51.73;;;;;;;10.59;100.00;103245.72;2013463;71;33057;-72
2021/11/18 23:12:24;;;;;;;52.37;48.57;;;;;;;10.81;100.00;103247.56;2007998;71;33285;-72
2021/11/18 23:18:10;;;;;;;53.70;49.80;;;;;;;10.89;100.00;103245.88;2009498;71;33337;-72
2021/11/18 23:23:56;;;;;;;51.10;47.50;;;;;;;11.01;100.00;103250.98;1980264;71;33052;-72
2021/11/18 23:29:41;;;;;;;52.17;48.47;;;;;;;11.25;100.00;103251.46;2016909;71;33337;-72
2021/11/18 23:35:26;;;;;;;50.13;46.37;;;;;;;11.43;100.00;103250.61;2013712;70;32874;-72
2021/11/18 23:41:12;;;;;;;51.33;47.63;;;;;;;11.29;100.00;103247.70;2017229;71;33327;-73
2021/11/18 23:46:56;;;;;;;52.83;49.13;;;;;;;11.41;100.00;103248.62;2009540;71;33403;-73
2021/11/18 23:52:41;;;;;;;53.00;49.17;;;;;;;11.58;100.00;103246.91;2018747;71;32905;-71
2021/11/18 23:58:31;;;;;;;52.97;48.93;;;;;;;11.76;100.00;103251.64;2009663;71;33334;-72
